Pine Flat, Mississippi
Current Conditions -  °F | °C
As of 11:55 PM on Friday 19 Dec 2014 (Local Time) from KUOX Reporting Station
Overcast Overcast  
Wind Chill: 37°   Ceiling: 9500
Heat Index: 37°   Visibility: 10mi
Dew Point: 34°   Wind: 0mph
Humidity: 87%   Direction: NA
Pressure: 30.23"   Gusts: NA
Location:  34.142°N, 89.6332°W
Report Text: KUOX 200555Z AUTO 00000KT 10SM FEW065 OVC095 03/01 A3023 RMK AO2 PWINO PNO
Loading
Personal Weather Stations






























Interactive Weather Map New forecast layout! Learn more

10-Day Weather Forecast

Advertisements
Track Severe Weather on mobile